createdAt,value
2019-03-01T00:00:04.592Z,17.30
2019-03-01T00:02:32.007Z,17.07
2019-03-01T00:05:08.507Z,18.80
2019-03-01T00:07:51.161Z,16.60
2019-03-01T00:10:18.700Z,15.50
2019-03-01T00:12:48.890Z,16.70
2019-03-01T00:15:25.825Z,17.43
2019-03-01T00:18:05.252Z,16.67
2019-03-01T00:20:32.746Z,17.60
2019-03-01T00:23:06.527Z,16.30
2019-03-01T00:25:39.913Z,17.13
2019-03-01T00:28:07.397Z,19.17
2019-03-01T00:30:37.673Z,18.20
2019-03-01T00:33:11.167Z,18.03
2019-03-01T00:35:41.474Z,18.80
2019-03-01T00:38:27.210Z,19.93
2019-03-01T00:40:54.676Z,19.00
2019-03-01T00:43:31.044Z,20.37
2019-03-01T00:45:56.591Z,19.30
2019-03-01T00:48:22.150Z,19.40
2019-03-01T00:50:47.721Z,18.03
2019-03-01T00:53:13.274Z,19.13
2019-03-01T00:55:38.832Z,19.80
2019-03-01T00:58:04.391Z,19.10
2019-03-01T01:00:31.847Z,21.93
2019-03-01T01:02:57.413Z,21.97
2019-03-01T01:05:23.184Z,19.57
2019-03-01T01:07:48.952Z,22.27
2019-03-01T01:10:15.220Z,20.30
2019-03-01T01:12:40.905Z,20.83
2019-03-01T01:15:06.628Z,20.70
2019-03-01T01:17:33.217Z,21.63
2019-03-01T01:19:58.776Z,22.53
2019-03-01T01:22:24.363Z,21.93
2019-03-01T01:24:50.412Z,24.40
2019-03-01T01:27:16.020Z,24.77
2019-03-01T01:29:41.558Z,25.67
2019-03-01T01:32:07.376Z,25.83
2019-03-01T01:34:32.943Z,27.07
2019-03-01T01:36:58.596Z,26.53
2019-03-01T01:39:24.243Z,28.70
2019-03-01T01:41:49.778Z,26.93
2019-03-01T01:44:15.368Z,26.60
2019-03-01T01:46:40.911Z,26.90
2019-03-01T01:49:06.526Z,28.47
2019-03-01T01:51:32.058Z,28.93
2019-03-01T01:53:58.596Z,27.40
2019-03-01T01:56:24.260Z,26.37
2019-03-01T01:58:49.803Z,26.33
2019-03-01T02:01:15.346Z,27.27
2019-03-01T02:03:40.923Z,30.53
2019-03-01T02:06:06.551Z,29.00
2019-03-01T02:08:32.238Z,27.33
2019-03-01T02:10:57.771Z,27.77
2019-03-01T02:13:23.356Z,27.80
2019-03-01T02:15:49.066Z,27.47
2019-03-01T02:18:14.704Z,26.97
2019-03-01T02:20:40.289Z,27.57
2019-03-01T02:23:05.863Z,27.63
2019-03-01T02:25:31.540Z,28.63
2019-03-01T02:27:57.194Z,27.13
2019-03-01T02:30:27.207Z,27.90
2019-03-01T02:32:52.920Z,28.00
2019-03-01T02:35:18.696Z,27.07
2019-03-01T02:37:44.381Z,28.03
2019-03-01T02:40:11.136Z,27.77
2019-03-01T02:42:36.705Z,27.43
2019-03-01T02:45:03.672Z,26.50
2019-03-01T02:47:29.377Z,28.10
2019-03-01T02:49:55.017Z,28.93
2019-03-01T02:52:20.652Z,27.50
2019-03-01T02:54:46.254Z,28.57
2019-03-01T02:57:11.802Z,28.80
2019-03-01T02:59:37.529Z,28.00
2019-03-01T03:02:04.085Z,29.10
2019-03-01T03:04:29.878Z,29.40
2019-03-01T03:07:04.051Z,29.60
2019-03-01T03:09:29.736Z,29.67
2019-03-01T03:11:55.304Z,29.20
2019-03-01T03:14:20.865Z,27.73
2019-03-01T03:16:46.571Z,26.80
2019-03-01T03:19:12.119Z,27.77
2019-03-01T03:21:37.712Z,26.17
2019-03-01T03:24:05.063Z,27.60
2019-03-01T03:26:30.761Z,26.53
2019-03-01T03:28:56.379Z,28.77
2019-03-01T03:31:21.975Z,26.70
2019-03-01T03:33:47.778Z,27.20
2019-03-01T03:36:15.480Z,27.30
2019-03-01T03:38:41.083Z,26.67
2019-03-01T03:41:06.632Z,27.30
2019-03-01T03:43:32.217Z,27.50
2019-03-01T03:45:58.114Z,27.80
2019-03-01T03:48:23.642Z,26.93
2019-03-01T03:50:49.281Z,25.40
2019-03-01T03:53:14.866Z,28.37
2019-03-01T03:55:40.414Z,26.20
2019-03-01T03:58:06.484Z,26.50
2019-03-01T04:00:32.332Z,28.37
2019-03-01T04:02:58.011Z,25.50
2019-03-01T04:05:23.556Z,25.70
2019-03-01T04:07:49.132Z,25.83
2019-03-01T04:10:14.822Z,25.47
2019-03-01T04:12:40.664Z,28.30
2019-03-01T04:15:13.186Z,24.80
2019-03-01T04:17:38.791Z,28.53
2019-03-01T04:20:06.153Z,30.20
2019-03-01T04:22:31.734Z,30.67
2019-03-01T04:24:57.313Z,29.50
2019-03-01T04:27:22.981Z,28.97
2019-03-01T04:29:48.623Z,29.53
2019-03-01T04:32:14.183Z,28.63
2019-03-01T04:34:39.780Z,27.80
2019-03-01T04:37:05.814Z,27.93
2019-03-01T04:39:31.444Z,25.80
2019-03-01T04:41:57.293Z,23.57
2019-03-01T04:44:22.863Z,24.57
2019-03-01T04:46:48.431Z,24.03
2019-03-01T04:49:14.488Z,25.33
2019-03-01T04:51:40.480Z,25.63
2019-03-01T04:54:07.425Z,25.10
2019-03-01T04:56:32.986Z,25.60
2019-03-01T04:58:58.507Z,26.03
2019-03-01T05:01:25.289Z,24.57
2019-03-01T05:03:50.951Z,25.13
2019-03-01T05:06:16.482Z,26.00
2019-03-01T05:08:42.063Z,25.80
2019-03-01T05:11:07.612Z,24.50
2019-03-01T05:13:33.206Z,22.50
2019-03-01T05:15:58.968Z,23.90
2019-03-01T05:18:24.523Z,21.70
2019-03-01T05:20:51.121Z,21.07
2019-03-01T05:23:16.668Z,21.70
2019-03-01T05:25:42.253Z,20.10
2019-03-01T05:28:07.900Z,17.80
2019-03-01T05:30:33.638Z,19.00
2019-03-01T05:32:59.275Z,18.47
2019-03-01T05:35:24.951Z,19.27
2019-03-01T05:37:50.549Z,20.60
2019-03-01T05:40:16.247Z,19.77
2019-03-01T05:42:42.814Z,19.70
2019-03-01T05:45:10.004Z,20.80
2019-03-01T05:47:35.608Z,20.90
2019-03-01T05:50:01.260Z,19.60
2019-03-01T05:52:27.987Z,20.60
2019-03-01T05:54:53.529Z,19.43
2019-03-01T05:57:19.127Z,18.90
2019-03-01T05:59:48.961Z,18.80
2019-03-01T06:02:25.519Z,20.27
2019-03-01T06:04:53.038Z,18.70
2019-03-01T06:07:29.283Z,18.30
2019-03-01T06:10:11.931Z,17.37
2019-03-01T06:12:45.382Z,17.53
2019-03-01T06:15:15.735Z,17.40
2019-03-01T06:18:01.675Z,17.50
2019-03-01T06:20:38.668Z,16.50
2019-03-01T06:23:09.222Z,16.50
2019-03-01T06:25:39.585Z,16.67
2019-03-01T06:28:07.388Z,15.37
2019-03-01T06:30:37.851Z,14.27
2019-03-01T06:33:08.564Z,13.50
2019-03-01T06:35:36.153Z,12.67
2019-03-01T06:38:11.446Z,12.33
2019-03-01T06:40:47.056Z,12.63
2019-03-01T06:43:18.063Z,11.60
2019-03-01T06:45:54.877Z,12.13
2019-03-01T06:48:23.442Z,12.73
2019-03-01T06:50:51.291Z,19.90
2019-03-01T06:53:16.869Z,13.07
2019-03-01T06:55:42.859Z,12.80
2019-03-01T06:58:10.012Z,12.20
2019-03-01T07:00:37.649Z,12.77
2019-03-01T07:03:03.362Z,12.60
2019-03-01T07:05:28.974Z,12.40
2019-03-01T07:07:54.519Z,12.27
2019-03-01T07:10:21.634Z,12.97
2019-03-01T07:12:47.325Z,15.40
2019-03-01T07:15:12.869Z,13.17
2019-03-01T07:17:38.450Z,14.53
2019-03-01T07:20:05.271Z,13.07
2019-03-01T07:22:31.207Z,11.70
2019-03-01T07:24:56.825Z,12.60
2019-03-01T07:27:22.609Z,10.90
2019-03-01T07:29:48.444Z,11.60
2019-03-01T07:32:14.001Z,11.77
2019-03-01T07:34:39.616Z,12.67
2019-03-01T07:37:05.345Z,12.20
2019-03-01T07:39:30.988Z,12.70
2019-03-01T07:41:56.685Z,12.83
2019-03-01T07:44:22.348Z,13.03
2019-03-01T07:46:53.081Z,21.60
2019-03-01T07:49:15.708Z,13.77
2019-03-01T07:51:41.287Z,13.50
2019-03-01T07:54:06.841Z,13.63
2019-03-01T07:56:32.420Z,13.17
2019-03-01T07:59:00.331Z,12.03
2019-03-01T08:01:29.046Z,10.50
2019-03-01T08:03:53.426Z,9.93
2019-03-01T08:06:19.155Z,9.47
2019-03-01T08:08:44.812Z,9.20
2019-03-01T08:11:10.371Z,10.30
2019-03-01T08:13:35.950Z,8.30
2019-03-01T08:16:02.410Z,8.23
2019-03-01T08:18:28.110Z,7.00
2019-03-01T08:20:53.792Z,7.63
2019-03-01T08:23:19.336Z,6.67
2019-03-01T08:25:45.067Z,7.17
2019-03-01T08:28:10.703Z,5.40
2019-03-01T08:30:36.637Z,6.30
2019-03-01T08:33:02.734Z,6.00
2019-03-01T08:35:32.065Z,6.17
2019-03-01T08:37:57.158Z,6.53
2019-03-01T08:40:22.807Z,4.97
2019-03-01T08:42:48.339Z,4.70
2019-03-01T08:45:14.872Z,5.00
2019-03-01T08:47:40.493Z,5.23
2019-03-01T08:50:10.572Z,4.70
2019-03-01T08:52:40.357Z,6.80
2019-03-01T08:55:06.386Z,6.97
2019-03-01T08:57:31.999Z,7.30
2019-03-01T08:59:57.536Z,8.57
2019-03-01T09:02:23.080Z,8.40
2019-03-01T09:04:51.247Z,8.17
2019-03-01T09:07:16.116Z,7.40
2019-03-01T09:09:41.675Z,7.27
2019-03-01T09:12:07.342Z,6.73
2019-03-01T09:14:33.027Z,6.63
2019-03-01T09:16:58.785Z,5.40
2019-03-01T09:19:25.287Z,6.13
2019-03-01T09:21:51.750Z,4.63
2019-03-01T09:24:17.275Z,4.20
2019-03-01T09:26:42.815Z,4.30
2019-03-01T09:29:08.572Z,4.57
2019-03-01T09:31:34.579Z,4.93
2019-03-01T09:34:00.169Z,4.70
2019-03-01T09:36:27.607Z,9.23
2019-03-01T09:38:53.155Z,5.63
2019-03-01T09:41:18.678Z,3.57
2019-03-01T09:43:44.290Z,3.03
2019-03-01T09:46:09.915Z,3.33
2019-03-01T09:48:35.459Z,3.63
2019-03-01T09:51:01.172Z,3.63
2019-03-01T09:53:26.795Z,3.20
2019-03-01T09:55:52.362Z,4.30
2019-03-01T09:58:19.037Z,3.90
2019-03-01T10:00:55.580Z,4.47
2019-03-01T10:03:15.029Z,4.07
2019-03-01T10:05:40.727Z,5.33
2019-03-01T10:08:07.734Z,3.40
2019-03-01T10:10:33.785Z,3.40
2019-03-01T10:12:59.396Z,2.83
2019-03-01T10:15:25.050Z,3.13
2019-03-01T10:17:50.575Z,3.00
2019-03-01T10:20:16.133Z,3.07
2019-03-01T10:22:41.902Z,3.03
2019-03-01T10:25:08.968Z,2.80
2019-03-01T10:27:34.533Z,3.70
2019-03-01T10:30:00.172Z,3.57
2019-03-01T10:32:26.072Z,2.63
2019-03-01T10:34:51.610Z,2.80
2019-03-01T10:37:17.139Z,3.80
2019-03-01T10:39:42.690Z,3.43
2019-03-01T10:42:09.329Z,3.10
2019-03-01T10:44:34.846Z,3.33
2019-03-01T10:47:00.414Z,3.97
2019-03-01T10:49:26.952Z,3.50
2019-03-01T10:51:52.506Z,5.00
2019-03-01T10:54:18.047Z,3.37
2019-03-01T10:56:43.584Z,3.90
2019-03-01T10:59:09.178Z,4.40
2019-03-01T11:01:35.023Z,5.50
2019-03-01T11:04:00.544Z,6.30
2019-03-01T11:06:26.073Z,3.70
2019-03-01T11:08:51.667Z,4.23
2019-03-01T11:11:17.204Z,4.40
2019-03-01T11:13:42.785Z,4.40
2019-03-01T11:16:08.439Z,3.77
2019-03-01T11:18:33.964Z,3.77
2019-03-01T11:20:59.547Z,4.10
2019-03-01T11:23:25.078Z,4.63
2019-03-01T11:25:50.595Z,3.70
2019-03-01T11:28:16.134Z,3.43
2019-03-01T11:30:41.726Z,3.20
2019-03-01T11:33:07.245Z,4.00
2019-03-01T11:35:32.789Z,4.17
2019-03-01T11:37:58.634Z,4.27
2019-03-01T11:40:31.067Z,4.80
2019-03-01T11:42:56.695Z,5.40
2019-03-01T11:45:22.316Z,4.40
2019-03-01T11:47:47.961Z,4.00
2019-03-01T11:50:15.554Z,3.87
2019-03-01T11:52:41.092Z,4.37
2019-03-01T11:55:06.921Z,4.40
2019-03-01T11:57:32.482Z,4.40
2019-03-01T11:59:58.039Z,3.67
2019-03-01T12:02:23.605Z,3.57
2019-03-01T12:04:49.136Z,3.10
2019-03-01T12:07:14.694Z,4.53
2019-03-01T12:09:41.655Z,3.70
2019-03-01T12:12:07.293Z,3.57
2019-03-01T12:14:32.851Z,3.07
2019-03-01T12:16:58.704Z,3.93
2019-03-01T12:19:24.255Z,3.17
2019-03-01T12:21:49.836Z,3.77
2019-03-01T12:24:16.555Z,5.20
2019-03-01T12:26:42.128Z,5.27
2019-03-01T12:29:07.772Z,4.30
2019-03-01T12:31:33.427Z,4.10
2019-03-01T12:33:58.962Z,4.20
2019-03-01T12:36:24.519Z,4.50
2019-03-01T12:38:50.143Z,4.00
2019-03-01T12:41:15.709Z,3.63
2019-03-01T12:43:41.305Z,2.83
2019-03-01T12:46:06.890Z,3.73
2019-03-01T12:48:32.445Z,3.40
2019-03-01T12:50:58.008Z,4.30
2019-03-01T12:53:23.738Z,4.87
2019-03-01T12:55:49.592Z,3.50
2019-03-01T12:58:19.323Z,3.20
2019-03-01T13:00:42.620Z,3.77
2019-03-01T13:03:09.218Z,4.17
2019-03-01T13:05:35.523Z,3.67
2019-03-01T13:08:01.352Z,3.47
2019-03-01T13:10:28.939Z,4.67
2019-03-01T13:12:58.648Z,4.10
2019-03-01T13:15:22.938Z,4.37
2019-03-01T13:17:50.008Z,4.90
2019-03-01T13:20:16.240Z,5.70
2019-03-01T13:22:41.765Z,5.63
2019-03-01T13:25:07.893Z,6.43
2019-03-01T13:27:33.572Z,4.23
2019-03-01T13:29:59.820Z,4.20
2019-03-01T13:32:25.519Z,3.53
2019-03-01T13:34:51.114Z,3.17
2019-03-01T13:37:20.097Z,5.27
2019-03-01T13:39:44.964Z,4.80
2019-03-01T13:42:13.367Z,4.53
2019-03-01T13:44:39.853Z,5.67
2019-03-01T13:47:08.656Z,4.77
2019-03-01T13:49:33.794Z,6.40
2019-03-01T13:51:59.383Z,4.00
2019-03-01T13:54:25.255Z,4.83
2019-03-01T13:56:50.869Z,4.50
2019-03-01T13:59:16.436Z,5.67
2019-03-01T14:01:41.995Z,6.60
2019-03-01T14:04:09.436Z,5.00
2019-03-01T14:06:35.100Z,4.40
2019-03-01T14:09:00.683Z,4.63
2019-03-01T14:11:26.400Z,4.13
2019-03-01T14:13:52.274Z,5.63
2019-03-01T14:16:20.423Z,5.13
2019-03-01T14:18:45.773Z,3.73
2019-03-01T14:21:11.446Z,3.80
2019-03-01T14:23:37.094Z,6.60
2019-03-01T14:26:02.773Z,5.40
2019-03-01T14:28:28.299Z,6.33
2019-03-01T14:30:54.327Z,5.20
2019-03-01T14:33:19.936Z,5.10
2019-03-01T14:35:45.518Z,5.70
2019-03-01T14:38:14.455Z,5.80
2019-03-01T14:40:48.006Z,6.10
2019-03-01T14:43:14.084Z,4.40
2019-03-01T14:45:44.732Z,3.97
2019-03-01T14:48:10.259Z,5.83
2019-03-01T14:50:40.190Z,4.73
2019-03-01T14:53:08.915Z,4.23
2019-03-01T14:55:36.589Z,4.47
2019-03-01T14:58:04.240Z,5.50
2019-03-01T15:00:32.109Z,7.40
2019-03-01T15:03:02.672Z,6.50
2019-03-01T15:05:34.580Z,6.30
2019-03-01T15:08:03.210Z,5.40
2019-03-01T15:10:32.060Z,5.17
2019-03-01T15:12:59.867Z,6.20
2019-03-01T15:15:30.014Z,6.17
2019-03-01T15:18:03.032Z,4.07
2019-03-01T15:20:28.785Z,5.23
2019-03-01T15:22:55.262Z,6.10
2019-03-01T15:25:20.810Z,6.00
2019-03-01T15:27:46.595Z,5.60
2019-03-01T15:30:16.401Z,6.00
2019-03-01T15:32:42.262Z,6.53
2019-03-01T15:35:08.452Z,6.70
2019-03-01T15:37:35.031Z,4.43
2019-03-01T15:40:01.782Z,3.97
2019-03-01T15:42:27.548Z,3.60
2019-03-01T15:44:53.516Z,6.30
2019-03-01T15:47:26.661Z,3.97
2019-03-01T15:49:57.288Z,4.13
2019-03-01T15:52:25.108Z,7.10
2019-03-01T15:57:33.793Z,5.17
2019-03-01T15:59:59.401Z,5.60
2019-03-01T16:02:26.409Z,6.90
2019-03-01T16:04:52.014Z,4.40
2019-03-01T16:07:18.075Z,4.30
2019-03-01T16:09:43.797Z,4.23
2019-03-01T16:12:10.159Z,3.90
2019-03-01T16:14:35.998Z,4.50
2019-03-01T16:17:04.732Z,3.73
2019-03-01T16:19:31.450Z,3.97
2019-03-01T16:21:57.979Z,3.80
2019-03-01T16:24:23.704Z,5.17
2019-03-01T16:26:49.347Z,5.90
2019-03-01T16:29:17.825Z,5.10
2019-03-01T16:31:43.588Z,4.87
2019-03-01T16:34:11.951Z,4.10
2019-03-01T16:36:38.523Z,4.70
2019-03-01T16:39:06.003Z,5.30
2019-03-01T16:41:35.224Z,6.50
2019-03-01T16:44:01.283Z,5.40
2019-03-01T16:46:31.295Z,4.53
2019-03-01T16:48:56.088Z,5.87
2019-03-01T16:51:23.649Z,5.87
2019-03-01T16:53:49.352Z,4.43
2019-03-01T16:56:15.083Z,4.80
2019-03-01T16:58:42.666Z,6.20
2019-03-01T17:01:08.240Z,4.97
2019-03-01T17:03:33.873Z,4.83
2019-03-01T17:06:00.075Z,4.97
2019-03-01T17:08:26.472Z,7.60
2019-03-01T17:13:41.067Z,6.80
2019-03-01T17:16:06.880Z,7.40
2019-03-01T17:18:32.924Z,6.77
2019-03-01T17:20:58.655Z,6.27
2019-03-01T17:23:24.591Z,5.57
2019-03-01T17:25:50.417Z,5.03
2019-03-01T17:28:16.809Z,5.07
2019-03-01T17:30:46.688Z,5.80
2019-03-01T17:33:12.790Z,5.80
2019-03-01T17:35:40.966Z,8.50
2019-03-01T17:38:08.311Z,7.70
2019-03-01T17:40:35.790Z,5.63
2019-03-01T17:43:01.740Z,5.87
2019-03-01T17:45:27.405Z,5.57
2019-03-01T17:47:55.203Z,5.20
2019-03-01T17:50:20.488Z,5.80
2019-03-01T17:52:46.847Z,5.97
2019-03-01T17:55:15.107Z,5.80
2019-03-01T17:57:41.013Z,4.37
2019-03-01T18:00:08.700Z,5.10
2019-03-01T18:02:34.466Z,4.30
2019-03-01T18:05:00.110Z,4.90
2019-03-01T18:07:27.188Z,4.00
2019-03-01T18:09:55.387Z,3.80
2019-03-01T18:12:21.314Z,3.70
2019-03-01T18:14:47.776Z,4.33
2019-03-01T18:17:14.914Z,4.73
2019-03-01T18:19:42.176Z,6.50
2019-03-01T18:22:08.073Z,4.97
2019-03-01T18:24:33.769Z,4.80
2019-03-01T18:26:59.510Z,4.90
2019-03-01T18:29:25.387Z,6.13
2019-03-01T18:31:53.024Z,6.63
2019-03-01T18:34:18.961Z,4.70
2019-03-01T18:36:45.825Z,5.23
2019-03-01T18:39:11.558Z,5.40
2019-03-01T18:41:39.228Z,4.47
2019-03-01T18:44:05.150Z,4.77
2019-03-01T18:46:30.886Z,4.10
2019-03-01T18:48:57.592Z,4.63
2019-03-01T18:51:23.124Z,4.73
2019-03-01T18:53:48.662Z,4.13
2019-03-01T18:56:14.268Z,4.63
2019-03-01T18:58:40.063Z,6.03
2019-03-01T19:01:10.455Z,5.50
2019-03-01T19:03:36.475Z,5.50
2019-03-01T19:06:04.698Z,4.30
2019-03-01T19:08:30.602Z,8.57
2019-03-01T19:10:59.644Z,9.80
2019-03-01T19:13:28.065Z,8.30
2019-03-01T19:15:54.765Z,7.77
2019-03-01T19:18:20.852Z,9.03
2019-03-01T19:20:47.699Z,10.27
2019-03-01T19:23:13.228Z,10.20
2019-03-01T19:25:38.809Z,8.80
2019-03-01T19:28:04.517Z,5.80
2019-03-01T19:30:30.350Z,7.30
2019-03-01T19:32:58.977Z,8.13
2019-03-01T19:35:28.561Z,11.37
2019-03-01T19:37:51.942Z,9.87
2019-03-01T19:40:22.658Z,10.00
2019-03-01T19:42:48.559Z,7.30
2019-03-01T19:45:18.202Z,6.97
2019-03-01T19:47:44.940Z,5.53
2019-03-01T19:50:11.399Z,4.67
2019-03-01T19:52:37.074Z,5.33
2019-03-01T19:55:03.980Z,4.97
2019-03-01T19:57:29.647Z,4.97
2019-03-01T19:59:55.321Z,4.80
2019-03-01T20:02:20.897Z,4.33
2019-03-01T20:04:46.577Z,4.90
2019-03-01T20:07:12.372Z,5.17
2019-03-01T20:09:39.773Z,5.57
2019-03-01T20:12:05.837Z,4.60
2019-03-01T20:14:33.815Z,5.07
2019-03-01T20:16:59.019Z,5.33
2019-03-01T20:19:24.742Z,5.83
2019-03-01T20:21:50.579Z,4.90
2019-03-01T20:24:16.211Z,5.63
2019-03-01T20:26:41.755Z,3.93
2019-03-01T20:29:07.396Z,4.07
2019-03-01T20:31:36.845Z,5.07
2019-03-01T20:34:03.330Z,4.50
2019-03-01T20:36:30.914Z,4.43
2019-03-01T20:38:57.658Z,5.27
2019-03-01T20:41:27.342Z,4.47
2019-03-01T20:43:53.185Z,4.17
2019-03-01T20:46:18.748Z,3.70
2019-03-01T20:48:44.383Z,4.83
2019-03-01T20:51:10.049Z,4.07
2019-03-01T20:53:36.685Z,2.90
2019-03-01T20:56:05.196Z,4.60
2019-03-01T20:58:30.900Z,3.87
2019-03-01T21:00:58.900Z,4.43
2019-03-01T21:03:29.789Z,3.17
2019-03-01T21:05:51.727Z,3.40
2019-03-01T21:08:19.304Z,3.53
2019-03-01T21:10:46.850Z,3.80
2019-03-01T21:13:14.461Z,3.43
2019-03-01T21:15:40.056Z,4.33
2019-03-01T21:18:05.615Z,3.63
2019-03-01T21:20:31.602Z,4.30
2019-03-01T21:22:57.196Z,4.10
2019-03-01T21:25:26.440Z,3.30
2019-03-01T21:27:52.210Z,3.33
2019-03-01T21:30:24.131Z,3.90
2019-03-01T21:32:50.794Z,4.53
2019-03-01T21:35:17.360Z,4.20
2019-03-01T21:37:42.958Z,3.63
2019-03-01T21:40:12.136Z,3.53
2019-03-01T21:42:37.705Z,3.10
2019-03-01T21:45:05.021Z,3.20
2019-03-01T21:47:30.565Z,3.03
2019-03-01T21:50:03.856Z,3.40
2019-03-01T21:52:33.979Z,3.57
2019-03-01T21:54:59.603Z,2.57
2019-03-01T21:57:27.604Z,3.10
2019-03-01T21:59:53.463Z,3.00
2019-03-01T22:02:19.315Z,3.83
2019-03-01T22:04:44.948Z,3.23
2019-03-01T22:07:10.533Z,3.37
2019-03-01T22:09:36.167Z,3.10
2019-03-01T22:12:01.848Z,3.40
2019-03-01T22:14:29.289Z,3.67
2019-03-01T22:16:57.060Z,3.37
2019-03-01T22:19:24.104Z,3.23
2019-03-01T22:21:49.738Z,3.47
2019-03-01T22:24:18.303Z,3.70
2019-03-01T22:26:46.700Z,3.30
2019-03-01T22:29:13.024Z,4.00
2019-03-01T22:31:39.732Z,4.03
2019-03-01T22:34:05.358Z,3.30
2019-03-01T22:36:31.084Z,3.90
2019-03-01T22:38:56.888Z,3.53
2019-03-01T22:41:22.551Z,2.67
2019-03-01T22:43:48.279Z,3.57
2019-03-01T22:46:13.872Z,3.50
2019-03-01T22:48:46.693Z,3.63
2019-03-01T22:51:06.872Z,3.57
2019-03-01T22:53:32.459Z,3.83
2019-03-01T22:55:58.059Z,3.37
2019-03-01T22:58:23.598Z,3.57
2019-03-01T23:00:58.805Z,3.40
2019-03-01T23:03:25.181Z,3.40
2019-03-01T23:05:52.887Z,3.77
2019-03-01T23:08:18.471Z,2.60
2019-03-01T23:10:44.505Z,3.03
2019-03-01T23:13:10.275Z,3.07
2019-03-01T23:15:36.103Z,3.90
2019-03-01T23:18:01.846Z,3.20
2019-03-01T23:20:27.655Z,2.90
2019-03-01T23:22:53.459Z,3.40
2019-03-01T23:25:19.052Z,3.47
2019-03-01T23:27:44.912Z,3.00
2019-03-01T23:30:11.156Z,3.23
2019-03-01T23:32:36.840Z,4.17
2019-03-01T23:35:02.624Z,3.23
2019-03-01T23:37:28.185Z,3.00
2019-03-01T23:39:57.135Z,3.40
2019-03-01T23:42:22.084Z,4.13
2019-03-01T23:44:54.365Z,3.80
2019-03-01T23:47:20.770Z,3.13
2019-03-01T23:49:46.419Z,2.83
2019-03-01T23:52:12.120Z,3.27
2019-03-01T23:54:40.710Z,3.63
2019-03-01T23:57:05.650Z,3.20
2019-03-01T23:59:38.058Z,2.63
